sensor_id;sensor_type;location;lat;lon;timestamp;P1;durP1;ratioP1;P2;durP2;ratioP2
10509;SDS011;5303;53.266;10.410;2024-01-27T00:02:23;13.10;;;4.00;;
10509;SDS011;5303;53.266;10.410;2024-01-27T00:04:49;25.17;;;5.43;;
10509;SDS011;5303;53.266;10.410;2024-01-27T00:07:14;20.07;;;4.27;;
10509;SDS011;5303;53.266;10.410;2024-01-27T00:09:39;27.13;;;5.10;;
10509;SDS011;5303;53.266;10.410;2024-01-27T00:12:06;19.23;;;5.07;;
10509;SDS011;5303;53.266;10.410;2024-01-27T00:14:31;21.67;;;5.23;;
10509;SDS011;5303;53.266;10.410;2024-01-27T00:16:56;27.43;;;5.70;;
10509;SDS011;5303;53.266;10.410;2024-01-27T00:19:22;21.00;;;5.07;;
10509;SDS011;5303;53.266;10.410;2024-01-27T00:21:47;24.03;;;4.90;;
10509;SDS011;5303;53.266;10.410;2024-01-27T00:24:13;21.33;;;5.17;;
10509;SDS011;5303;53.266;10.410;2024-01-27T00:26:38;19.37;;;4.73;;
10509;SDS011;5303;53.266;10.410;2024-01-27T00:29:04;18.40;;;4.70;;
10509;SDS011;5303;53.266;10.410;2024-01-27T00:31:29;23.60;;;4.57;;
10509;SDS011;5303;53.266;10.410;2024-01-27T00:33:54;17.53;;;4.90;;
10509;SDS011;5303;53.266;10.410;2024-01-27T00:36:20;16.77;;;4.33;;
10509;SDS011;5303;53.266;10.410;2024-01-27T00:38:45;18.83;;;4.67;;
10509;SDS011;5303;53.266;10.410;2024-01-27T00:41:15;21.53;;;5.37;;
10509;SDS011;5303;53.266;10.410;2024-01-27T00:43:41;21.40;;;4.90;;
10509;SDS011;5303;53.266;10.410;2024-01-27T00:46:06;18.77;;;4.67;;
10509;SDS011;5303;53.266;10.410;2024-01-27T00:48:32;25.50;;;5.30;;
10509;SDS011;5303;53.266;10.410;2024-01-27T00:50:57;18.60;;;4.40;;
10509;SDS011;5303;53.266;10.410;2024-01-27T00:53:22;22.33;;;5.20;;
10509;SDS011;5303;53.266;10.410;2024-01-27T00:55:48;22.13;;;5.30;;
10509;SDS011;5303;53.266;10.410;2024-01-27T00:58:13;20.73;;;5.10;;
10509;SDS011;5303;53.266;10.410;2024-01-27T01:00:38;22.07;;;4.77;;
10509;SDS011;5303;53.266;10.410;2024-01-27T01:03:04;20.13;;;5.87;;
10509;SDS011;5303;53.266;10.410;2024-01-27T01:05:29;24.40;;;4.80;;
10509;SDS011;5303;53.266;10.410;2024-01-27T01:07:54;21.13;;;5.30;;
10509;SDS011;5303;53.266;10.410;2024-01-27T01:10:19;18.67;;;4.23;;
10509;SDS011;5303;53.266;10.410;2024-01-27T01:12:45;16.03;;;4.50;;
10509;SDS011;5303;53.266;10.410;2024-01-27T01:15:10;19.93;;;4.70;;
10509;SDS011;5303;53.266;10.410;2024-01-27T01:17:35;18.77;;;4.80;;
10509;SDS011;5303;53.266;10.410;2024-01-27T01:20:01;19.83;;;4.40;;
10509;SDS011;5303;53.266;10.410;2024-01-27T01:22:26;16.87;;;4.80;;
10509;SDS011;5303;53.266;10.410;2024-01-27T01:24:51;21.30;;;5.17;;
10509;SDS011;5303;53.266;10.410;2024-01-27T01:27:17;19.40;;;4.50;;
10509;SDS011;5303;53.266;10.410;2024-01-27T01:29:44;18.77;;;4.63;;
10509;SDS011;5303;53.266;10.410;2024-01-27T01:32:09;19.43;;;4.43;;
10509;SDS011;5303;53.266;10.410;2024-01-27T01:34:34;20.27;;;4.73;;
10509;SDS011;5303;53.266;10.410;2024-01-27T01:37:00;17.93;;;4.77;;
10509;SDS011;5303;53.266;10.410;2024-01-27T01:39:27;20.80;;;4.53;;
10509;SDS011;5303;53.266;10.410;2024-01-27T01:41:53;23.57;;;4.83;;
10509;SDS011;5303;53.266;10.410;2024-01-27T01:44:18;20.67;;;5.10;;
10509;SDS011;5303;53.266;10.410;2024-01-27T01:46:43;29.10;;;4.73;;
10509;SDS011;5303;53.266;10.410;2024-01-27T01:49:10;20.70;;;4.10;;
10509;SDS011;5303;53.266;10.410;2024-01-27T01:51:35;23.20;;;4.37;;
10509;SDS011;5303;53.266;10.410;2024-01-27T01:54:00;19.93;;;4.93;;
10509;SDS011;5303;53.266;10.410;2024-01-27T01:56:27;21.10;;;5.47;;
10509;SDS011;5303;53.266;10.410;2024-01-27T01:58:53;21.00;;;4.97;;
10509;SDS011;5303;53.266;10.410;2024-01-27T02:01:19;20.23;;;5.10;;
10509;SDS011;5303;53.266;10.410;2024-01-27T02:03:52;26.50;;;5.23;;
10509;SDS011;5303;53.266;10.410;2024-01-27T02:06:18;21.97;;;6.07;;
10509;SDS011;5303;53.266;10.410;2024-01-27T02:08:44;18.33;;;5.03;;
10509;SDS011;5303;53.266;10.410;2024-01-27T02:11:09;21.93;;;4.50;;
10509;SDS011;5303;53.266;10.410;2024-01-27T02:13:34;26.07;;;5.07;;
10509;SDS011;5303;53.266;10.410;2024-01-27T02:15:59;18.23;;;4.07;;
10509;SDS011;5303;53.266;10.410;2024-01-27T02:18:25;26.03;;;5.07;;
10509;SDS011;5303;53.266;10.410;2024-01-27T02:20:50;19.80;;;5.20;;
10509;SDS011;5303;53.266;10.410;2024-01-27T02:23:15;19.67;;;4.57;;
10509;SDS011;5303;53.266;10.410;2024-01-27T02:25:40;22.73;;;4.40;;
10509;SDS011;5303;53.266;10.410;2024-01-27T02:28:06;20.30;;;4.60;;
10509;SDS011;5303;53.266;10.410;2024-01-27T02:30:31;17.90;;;4.43;;
10509;SDS011;5303;53.266;10.410;2024-01-27T02:32:57;18.23;;;4.73;;
10509;SDS011;5303;53.266;10.410;2024-01-27T02:35:23;19.53;;;4.20;;
10509;SDS011;5303;53.266;10.410;2024-01-27T02:37:49;23.03;;;4.40;;
10509;SDS011;5303;53.266;10.410;2024-01-27T02:40:14;18.13;;;4.07;;
10509;SDS011;5303;53.266;10.410;2024-01-27T02:42:39;20.10;;;4.60;;
10509;SDS011;5303;53.266;10.410;2024-01-27T02:45:07;22.57;;;5.40;;
10509;SDS011;5303;53.266;10.410;2024-01-27T02:47:33;20.80;;;4.47;;
10509;SDS011;5303;53.266;10.410;2024-01-27T02:49:58;18.73;;;4.70;;
10509;SDS011;5303;53.266;10.410;2024-01-27T02:52:23;23.07;;;4.57;;
10509;SDS011;5303;53.266;10.410;2024-01-27T02:54:48;24.30;;;4.93;;
10509;SDS011;5303;53.266;10.410;2024-01-27T02:57:14;16.63;;;4.77;;
10509;SDS011;5303;53.266;10.410;2024-01-27T02:59:44;24.53;;;4.63;;
10509;SDS011;5303;53.266;10.410;2024-01-27T03:02:10;18.50;;;4.73;;
10509;SDS011;5303;53.266;10.410;2024-01-27T03:04:35;15.60;;;4.47;;
10509;SDS011;5303;53.266;10.410;2024-01-27T03:07:01;20.67;;;4.33;;
10509;SDS011;5303;53.266;10.410;2024-01-27T03:09:26;17.33;;;4.00;;
10509;SDS011;5303;53.266;10.410;2024-01-27T03:11:51;24.80;;;4.10;;
10509;SDS011;5303;53.266;10.410;2024-01-27T03:14:17;24.73;;;5.20;;
10509;SDS011;5303;53.266;10.410;2024-01-27T03:16:43;22.67;;;4.97;;
10509;SDS011;5303;53.266;10.410;2024-01-27T03:19:09;16.17;;;4.70;;
10509;SDS011;5303;53.266;10.410;2024-01-27T03:21:35;22.57;;;4.60;;
10509;SDS011;5303;53.266;10.410;2024-01-27T03:24:00;23.00;;;4.50;;
10509;SDS011;5303;53.266;10.410;2024-01-27T03:26:26;18.73;;;4.63;;
10509;SDS011;5303;53.266;10.410;2024-01-27T03:28:52;17.80;;;4.77;;
10509;SDS011;5303;53.266;10.410;2024-01-27T03:31:17;21.90;;;4.50;;
10509;SDS011;5303;53.266;10.410;2024-01-27T03:33:42;21.10;;;3.97;;
10509;SDS011;5303;53.266;10.410;2024-01-27T03:36:11;20.80;;;4.90;;
10509;SDS011;5303;53.266;10.410;2024-01-27T03:38:37;27.00;;;5.00;;
10509;SDS011;5303;53.266;10.410;2024-01-27T03:41:04;20.93;;;5.30;;
10509;SDS011;5303;53.266;10.410;2024-01-27T03:43:30;27.87;;;5.03;;
10509;SDS011;5303;53.266;10.410;2024-01-27T03:45:56;19.50;;;4.40;;
10509;SDS011;5303;53.266;10.410;2024-01-27T03:48:24;20.57;;;4.87;;
10509;SDS011;5303;53.266;10.410;2024-01-27T03:50:50;18.60;;;4.30;;
10509;SDS011;5303;53.266;10.410;2024-01-27T03:53:15;18.33;;;4.73;;
10509;SDS011;5303;53.266;10.410;2024-01-27T03:55:40;22.83;;;4.77;;
10509;SDS011;5303;53.266;10.410;2024-01-27T03:58:06;22.50;;;4.80;;
10509;SDS011;5303;53.266;10.410;2024-01-27T04:00:31;20.90;;;5.23;;
10509;SDS011;5303;53.266;10.410;2024-01-27T04:02:58;15.33;;;4.10;;
10509;SDS011;5303;53.266;10.410;2024-01-27T04:05:24;21.60;;;5.53;;
10509;SDS011;5303;53.266;10.410;2024-01-27T04:07:49;21.10;;;4.73;;
10509;SDS011;5303;53.266;10.410;2024-01-27T04:10:16;20.90;;;4.70;;
10509;SDS011;5303;53.266;10.410;2024-01-27T04:12:42;20.20;;;5.17;;
10509;SDS011;5303;53.266;10.410;2024-01-27T04:15:08;16.43;;;4.80;;
10509;SDS011;5303;53.266;10.410;2024-01-27T04:17:33;19.80;;;5.07;;
10509;SDS011;5303;53.266;10.410;2024-01-27T04:19:59;24.67;;;4.80;;
10509;SDS011;5303;53.266;10.410;2024-01-27T04:22:24;17.90;;;4.73;;
10509;SDS011;5303;53.266;10.410;2024-01-27T04:24:49;17.63;;;4.63;;
10509;SDS011;5303;53.266;10.410;2024-01-27T04:27:14;24.03;;;4.27;;
10509;SDS011;5303;53.266;10.410;2024-01-27T04:29:40;16.87;;;4.57;;
10509;SDS011;5303;53.266;10.410;2024-01-27T04:32:06;18.17;;;4.80;;
10509;SDS011;5303;53.266;10.410;2024-01-27T04:34:32;20.27;;;4.83;;
10509;SDS011;5303;53.266;10.410;2024-01-27T04:36:57;22.20;;;4.87;;
10509;SDS011;5303;53.266;10.410;2024-01-27T04:39:22;27.63;;;4.70;;
10509;SDS011;5303;53.266;10.410;2024-01-27T04:41:47;20.13;;;4.73;;
10509;SDS011;5303;53.266;10.410;2024-01-27T04:44:13;21.30;;;5.20;;
10509;SDS011;5303;53.266;10.410;2024-01-27T04:46:38;25.27;;;4.90;;
10509;SDS011;5303;53.266;10.410;2024-01-27T04:49:03;17.73;;;4.70;;
10509;SDS011;5303;53.266;10.410;2024-01-27T04:51:29;17.97;;;4.67;;
10509;SDS011;5303;53.266;10.410;2024-01-27T04:53:54;17.90;;;4.60;;
10509;SDS011;5303;53.266;10.410;2024-01-27T04:56:19;18.27;;;5.17;;
10509;SDS011;5303;53.266;10.410;2024-01-27T04:58:45;22.10;;;4.80;;
10509;SDS011;5303;53.266;10.410;2024-01-27T05:01:10;24.10;;;4.70;;
10509;SDS011;5303;53.266;10.410;2024-01-27T05:03:35;28.67;;;5.80;;
10509;SDS011;5303;53.266;10.410;2024-01-27T05:06:01;30.67;;;5.87;;
10509;SDS011;5303;53.266;10.410;2024-01-27T05:08:27;18.63;;;4.97;;
10509;SDS011;5303;53.266;10.410;2024-01-27T05:10:52;29.17;;;5.37;;
10509;SDS011;5303;53.266;10.410;2024-01-27T05:13:17;19.87;;;5.30;;
10509;SDS011;5303;53.266;10.410;2024-01-27T05:15:43;22.40;;;4.93;;
10509;SDS011;5303;53.266;10.410;2024-01-27T05:18:08;21.70;;;4.90;;
10509;SDS011;5303;53.266;10.410;2024-01-27T05:20:35;20.83;;;5.37;;
10509;SDS011;5303;53.266;10.410;2024-01-27T05:23:00;24.67;;;5.90;;
10509;SDS011;5303;53.266;10.410;2024-01-27T05:25:25;29.17;;;5.30;;
10509;SDS011;5303;53.266;10.410;2024-01-27T05:27:50;22.80;;;5.03;;
10509;SDS011;5303;53.266;10.410;2024-01-27T05:30:16;15.83;;;5.10;;
10509;SDS011;5303;53.266;10.410;2024-01-27T05:32:42;21.07;;;5.23;;
10509;SDS011;5303;53.266;10.410;2024-01-27T05:35:07;25.60;;;5.37;;
10509;SDS011;5303;53.266;10.410;2024-01-27T05:37:33;20.43;;;4.80;;
10509;SDS011;5303;53.266;10.410;2024-01-27T05:39:58;28.80;;;5.70;;
10509;SDS011;5303;53.266;10.410;2024-01-27T05:42:23;19.97;;;4.70;;
10509;SDS011;5303;53.266;10.410;2024-01-27T05:44:49;25.70;;;5.93;;
10509;SDS011;5303;53.266;10.410;2024-01-27T05:47:14;24.97;;;6.40;;
10509;SDS011;5303;53.266;10.410;2024-01-27T05:49:40;16.97;;;5.87;;
10509;SDS011;5303;53.266;10.410;2024-01-27T05:52:06;30.67;;;5.33;;
10509;SDS011;5303;53.266;10.410;2024-01-27T05:54:31;21.80;;;5.70;;
10509;SDS011;5303;53.266;10.410;2024-01-27T05:56:57;15.30;;;5.20;;
10509;SDS011;5303;53.266;10.410;2024-01-27T05:59:24;22.00;;;4.93;;
10509;SDS011;5303;53.266;10.410;2024-01-27T06:01:50;18.03;;;5.37;;
10509;SDS011;5303;53.266;10.410;2024-01-27T06:04:16;16.60;;;4.47;;
10509;SDS011;5303;53.266;10.410;2024-01-27T06:06:41;19.43;;;5.27;;
10509;SDS011;5303;53.266;10.410;2024-01-27T06:09:07;23.67;;;5.13;;
10509;SDS011;5303;53.266;10.410;2024-01-27T06:11:36;27.03;;;5.87;;
10509;SDS011;5303;53.266;10.410;2024-01-27T06:14:02;24.30;;;4.87;;
10509;SDS011;5303;53.266;10.410;2024-01-27T06:16:27;22.23;;;6.03;;
10509;SDS011;5303;53.266;10.410;2024-01-27T06:18:52;21.20;;;5.70;;
10509;SDS011;5303;53.266;10.410;2024-01-27T06:21:19;21.60;;;5.40;;
10509;SDS011;5303;53.266;10.410;2024-01-27T06:23:45;19.77;;;5.83;;
10509;SDS011;5303;53.266;10.410;2024-01-27T06:26:12;25.63;;;6.10;;
10509;SDS011;5303;53.266;10.410;2024-01-27T06:28:38;23.57;;;6.10;;
10509;SDS011;5303;53.266;10.410;2024-01-27T06:31:04;19.23;;;5.07;;
10509;SDS011;5303;53.266;10.410;2024-01-27T06:33:29;20.57;;;5.30;;
10509;SDS011;5303;53.266;10.410;2024-01-27T06:35:55;19.43;;;5.77;;
10509;SDS011;5303;53.266;10.410;2024-01-27T06:38:20;28.13;;;5.53;;
10509;SDS011;5303;53.266;10.410;2024-01-27T06:40:45;21.10;;;5.37;;
10509;SDS011;5303;53.266;10.410;2024-01-27T06:43:12;20.43;;;5.77;;
10509;SDS011;5303;53.266;10.410;2024-01-27T06:45:37;27.20;;;6.27;;
10509;SDS011;5303;53.266;10.410;2024-01-27T06:48:03;17.47;;;4.83;;
10509;SDS011;5303;53.266;10.410;2024-01-27T06:50:29;19.23;;;4.83;;
10509;SDS011;5303;53.266;10.410;2024-01-27T06:52:54;26.20;;;5.70;;
10509;SDS011;5303;53.266;10.410;2024-01-27T06:55:19;26.97;;;5.97;;
10509;SDS011;5303;53.266;10.410;2024-01-27T06:57:45;20.50;;;5.30;;
10509;SDS011;5303;53.266;10.410;2024-01-27T07:00:10;24.60;;;4.97;;
10509;SDS011;5303;53.266;10.410;2024-01-27T07:02:39;20.90;;;4.80;;
10509;SDS011;5303;53.266;10.410;2024-01-27T07:05:05;19.63;;;4.90;;
10509;SDS011;5303;53.266;10.410;2024-01-27T07:07:31;17.17;;;4.73;;
10509;SDS011;5303;53.266;10.410;2024-01-27T07:09:56;14.50;;;4.53;;
10509;SDS011;5303;53.266;10.410;2024-01-27T07:12:22;19.88;;;5.70;;
10509;SDS011;5303;53.266;10.410;2024-01-27T07:14:48;25.73;;;4.97;;
10509;SDS011;5303;53.266;10.410;2024-01-27T07:17:13;23.97;;;4.80;;
10509;SDS011;5303;53.266;10.410;2024-01-27T07:19:39;25.30;;;4.93;;
10509;SDS011;5303;53.266;10.410;2024-01-27T07:22:04;18.87;;;4.73;;
10509;SDS011;5303;53.266;10.410;2024-01-27T07:24:30;18.23;;;4.67;;
10509;SDS011;5303;53.266;10.410;2024-01-27T07:26:55;16.53;;;4.70;;
10509;SDS011;5303;53.266;10.410;2024-01-27T07:29:20;22.53;;;4.53;;
10509;SDS011;5303;53.266;10.410;2024-01-27T07:31:46;15.73;;;4.30;;
10509;SDS011;5303;53.266;10.410;2024-01-27T07:34:12;21.73;;;5.47;;
10509;SDS011;5303;53.266;10.410;2024-01-27T07:36:37;24.70;;;6.27;;
10509;SDS011;5303;53.266;10.410;2024-01-27T07:39:02;17.50;;;5.00;;
10509;SDS011;5303;53.266;10.410;2024-01-27T07:41:29;17.30;;;5.13;;
10509;SDS011;5303;53.266;10.410;2024-01-27T07:43:55;14.37;;;4.67;;
10509;SDS011;5303;53.266;10.410;2024-01-27T07:46:21;13.80;;;5.47;;
10509;SDS011;5303;53.266;10.410;2024-01-27T07:48:47;22.27;;;5.77;;
10509;SDS011;5303;53.266;10.410;2024-01-27T07:51:16;18.33;;;5.40;;
10509;SDS011;5303;53.266;10.410;2024-01-27T07:53:41;19.10;;;4.70;;
10509;SDS011;5303;53.266;10.410;2024-01-27T07:56:07;19.90;;;5.67;;
10509;SDS011;5303;53.266;10.410;2024-01-27T07:58:32;21.40;;;5.07;;
10509;SDS011;5303;53.266;10.410;2024-01-27T08:00:58;17.70;;;4.47;;
10509;SDS011;5303;53.266;10.410;2024-01-27T08:03:23;19.23;;;5.17;;
10509;SDS011;5303;53.266;10.410;2024-01-27T08:05:48;22.17;;;5.73;;
10509;SDS011;5303;53.266;10.410;2024-01-27T08:08:13;16.20;;;4.93;;
10509;SDS011;5303;53.266;10.410;2024-01-27T08:10:39;19.20;;;5.17;;
10509;SDS011;5303;53.266;10.410;2024-01-27T08:13:05;17.43;;;5.13;;
10509;SDS011;5303;53.266;10.410;2024-01-27T08:15:30;21.47;;;4.97;;
10509;SDS011;5303;53.266;10.410;2024-01-27T08:17:55;24.33;;;4.83;;
10509;SDS011;5303;53.266;10.410;2024-01-27T08:20:20;18.23;;;5.23;;
10509;SDS011;5303;53.266;10.410;2024-01-27T08:22:46;21.33;;;5.63;;
10509;SDS011;5303;53.266;10.410;2024-01-27T08:25:15;18.03;;;5.23;;
10509;SDS011;5303;53.266;10.410;2024-01-27T08:27:41;19.80;;;4.97;;
10509;SDS011;5303;53.266;10.410;2024-01-27T08:30:06;18.10;;;4.70;;
10509;SDS011;5303;53.266;10.410;2024-01-27T08:32:32;16.47;;;5.20;;
10509;SDS011;5303;53.266;10.410;2024-01-27T08:34:58;20.63;;;5.37;;
10509;SDS011;5303;53.266;10.410;2024-01-27T08:37:23;18.43;;;4.40;;
10509;SDS011;5303;53.266;10.410;2024-01-27T08:39:48;17.23;;;4.80;;
10509;SDS011;5303;53.266;10.410;2024-01-27T08:42:16;16.47;;;4.60;;
10509;SDS011;5303;53.266;10.410;2024-01-27T08:44:41;17.20;;;3.87;;
10509;SDS011;5303;53.266;10.410;2024-01-27T08:47:06;21.40;;;4.37;;
10509;SDS011;5303;53.266;10.410;2024-01-27T08:49:31;22.60;;;5.00;;
10509;SDS011;5303;53.266;10.410;2024-01-27T08:51:57;16.63;;;4.10;;
10509;SDS011;5303;53.266;10.410;2024-01-27T08:54:22;13.77;;;4.20;;
10509;SDS011;5303;53.266;10.410;2024-01-27T08:56:47;15.67;;;5.20;;
10509;SDS011;5303;53.266;10.410;2024-01-27T08:59:13;15.27;;;4.60;;
10509;SDS011;5303;53.266;10.410;2024-01-27T09:01:38;15.90;;;5.17;;
10509;SDS011;5303;53.266;10.410;2024-01-27T09:04:03;17.53;;;4.07;;
10509;SDS011;5303;53.266;10.410;2024-01-27T09:06:29;18.43;;;5.33;;
10509;SDS011;5303;53.266;10.410;2024-01-27T09:08:54;20.07;;;4.77;;
10509;SDS011;5303;53.266;10.410;2024-01-27T09:11:19;17.57;;;4.33;;
10509;SDS011;5303;53.266;10.410;2024-01-27T09:13:46;16.03;;;5.07;;
10509;SDS011;5303;53.266;10.410;2024-01-27T09:16:13;17.07;;;4.40;;
10509;SDS011;5303;53.266;10.410;2024-01-27T09:18:39;21.73;;;4.40;;
10509;SDS011;5303;53.266;10.410;2024-01-27T09:21:04;13.80;;;3.83;;
10509;SDS011;5303;53.266;10.410;2024-01-27T09:23:30;12.60;;;3.90;;
10509;SDS011;5303;53.266;10.410;2024-01-27T09:25:55;16.37;;;5.07;;
10509;SDS011;5303;53.266;10.410;2024-01-27T09:28:20;18.53;;;4.77;;
10509;SDS011;5303;53.266;10.410;2024-01-27T09:30:45;15.23;;;5.23;;
10509;SDS011;5303;53.266;10.410;2024-01-27T09:33:11;23.03;;;4.30;;
10509;SDS011;5303;53.266;10.410;2024-01-27T09:35:36;12.53;;;4.33;;
10509;SDS011;5303;53.266;10.410;2024-01-27T09:38:02;16.53;;;5.37;;
10509;SDS011;5303;53.266;10.410;2024-01-27T09:40:27;17.70;;;4.80;;
10509;SDS011;5303;53.266;10.410;2024-01-27T09:42:53;14.30;;;4.53;;
10509;SDS011;5303;53.266;10.410;2024-01-27T09:45:23;13.13;;;4.50;;
10509;SDS011;5303;53.266;10.410;2024-01-27T09:47:49;18.70;;;4.43;;
10509;SDS011;5303;53.266;10.410;2024-01-27T09:50:17;19.40;;;4.60;;
10509;SDS011;5303;53.266;10.410;2024-01-27T09:52:43;13.13;;;3.97;;
10509;SDS011;5303;53.266;10.410;2024-01-27T09:55:08;14.73;;;4.63;;
10509;SDS011;5303;53.266;10.410;2024-01-27T09:57:34;14.97;;;3.50;;
10509;SDS011;5303;53.266;10.410;2024-01-27T10:00:03;13.23;;;4.17;;
10509;SDS011;5303;53.266;10.410;2024-01-27T10:02:30;16.63;;;4.10;;
10509;SDS011;5303;53.266;10.410;2024-01-27T10:04:57;14.17;;;4.03;;
10509;SDS011;5303;53.266;10.410;2024-01-27T10:07:24;15.00;;;4.90;;
10509;SDS011;5303;53.266;10.410;2024-01-27T10:09:49;17.27;;;4.97;;
10509;SDS011;5303;53.266;10.410;2024-01-27T10:12:15;14.30;;;3.77;;
10509;SDS011;5303;53.266;10.410;2024-01-27T10:14:42;14.47;;;4.40;;
10509;SDS011;5303;53.266;10.410;2024-01-27T10:17:19;16.80;;;4.23;;
10509;SDS011;5303;53.266;10.410;2024-01-27T10:20:01;17.30;;;5.05;;
10509;SDS011;5303;53.266;10.410;2024-01-27T10:22:28;17.00;;;4.20;;
10509;SDS011;5303;53.266;10.410;2024-01-27T10:24:53;16.50;;;3.93;;
10509;SDS011;5303;53.266;10.410;2024-01-27T10:27:20;17.17;;;4.57;;
10509;SDS011;5303;53.266;10.410;2024-01-27T10:29:52;12.10;;;3.53;;
10509;SDS011;5303;53.266;10.410;2024-01-27T10:32:19;18.20;;;3.90;;
10509;SDS011;5303;53.266;10.410;2024-01-27T10:34:44;16.20;;;3.80;;
10509;SDS011;5303;53.266;10.410;2024-01-27T10:37:11;18.27;;;4.03;;
10509;SDS011;5303;53.266;10.410;2024-01-27T10:39:38;13.13;;;3.70;;
10509;SDS011;5303;53.266;10.410;2024-01-27T10:42:03;15.73;;;4.40;;
10509;SDS011;5303;53.266;10.410;2024-01-27T10:44:29;10.67;;;3.70;;
10509;SDS011;5303;53.266;10.410;2024-01-27T10:46:55;14.37;;;4.00;;
10509;SDS011;5303;53.266;10.410;2024-01-27T10:49:26;12.90;;;4.43;;
10509;SDS011;5303;53.266;10.410;2024-01-27T10:51:55;11.07;;;3.80;;
10509;SDS011;5303;53.266;10.410;2024-01-27T10:54:25;13.97;;;3.97;;
10509;SDS011;5303;53.266;10.410;2024-01-27T10:56:53;13.93;;;4.47;;
10509;SDS011;5303;53.266;10.410;2024-01-27T10:59:21;11.07;;;3.20;;
10509;SDS011;5303;53.266;10.410;2024-01-27T11:01:47;10.80;;;4.00;;
10509;SDS011;5303;53.266;10.410;2024-01-27T11:04:16;15.97;;;4.33;;
10509;SDS011;5303;53.266;10.410;2024-01-27T11:06:42;18.77;;;4.10;;
10509;SDS011;5303;53.266;10.410;2024-01-27T11:09:09;12.57;;;3.65;;
10509;SDS011;5303;53.266;10.410;2024-01-27T11:11:37;14.57;;;3.17;;
10509;SDS011;5303;53.266;10.410;2024-01-27T11:14:03;15.63;;;3.50;;
10509;SDS011;5303;53.266;10.410;2024-01-27T11:16:28;15.93;;;3.87;;
10509;SDS011;5303;53.266;10.410;2024-01-27T11:18:54;21.03;;;4.27;;
10509;SDS011;5303;53.266;10.410;2024-01-27T11:21:19;10.27;;;3.63;;
10509;SDS011;5303;53.266;10.410;2024-01-27T11:23:45;12.93;;;3.50;;
10509;SDS011;5303;53.266;10.410;2024-01-27T11:26:16;11.23;;;3.13;;
10509;SDS011;5303;53.266;10.410;2024-01-27T11:28:44;12.10;;;3.30;;
10509;SDS011;5303;53.266;10.410;2024-01-27T11:31:09;15.83;;;3.77;;
10509;SDS011;5303;53.266;10.410;2024-01-27T11:33:41;11.33;;;3.73;;
10509;SDS011;5303;53.266;10.410;2024-01-27T11:36:08;12.63;;;3.70;;
10509;SDS011;5303;53.266;10.410;2024-01-27T11:38:44;8.10;;;3.40;;
10509;SDS011;5303;53.266;10.410;2024-01-27T11:41:09;15.13;;;3.60;;
10509;SDS011;5303;53.266;10.410;2024-01-27T11:43:34;17.90;;;4.40;;
10509;SDS011;5303;53.266;10.410;2024-01-27T11:46:00;16.23;;;4.03;;
10509;SDS011;5303;53.266;10.410;2024-01-27T11:48:26;9.43;;;3.70;;
10509;SDS011;5303;53.266;10.410;2024-01-27T11:51:06;13.23;;;3.77;;
10509;SDS011;5303;53.266;10.410;2024-01-27T11:53:34;9.93;;;3.83;;
10509;SDS011;5303;53.266;10.410;2024-01-27T11:55:59;15.13;;;3.90;;
10509;SDS011;5303;53.266;10.410;2024-01-27T11:58:26;12.20;;;3.47;;
10509;SDS011;5303;53.266;10.410;2024-01-27T12:00:52;15.20;;;3.93;;
10509;SDS011;5303;53.266;10.410;2024-01-27T12:03:17;11.47;;;3.90;;
10509;SDS011;5303;53.266;10.410;2024-01-27T12:05:42;19.40;;;4.70;;
10509;SDS011;5303;53.266;10.410;2024-01-27T12:08:08;13.43;;;4.20;;
10509;SDS011;5303;53.266;10.410;2024-01-27T12:10:33;13.03;;;3.97;;
10509;SDS011;5303;53.266;10.410;2024-01-27T12:12:59;15.37;;;4.83;;
10509;SDS011;5303;53.266;10.410;2024-01-27T12:15:25;13.50;;;3.60;;
10509;SDS011;5303;53.266;10.410;2024-01-27T12:17:51;11.63;;;4.23;;
10509;SDS011;5303;53.266;10.410;2024-01-27T12:20:17;9.83;;;3.17;;
10509;SDS011;5303;53.266;10.410;2024-01-27T12:22:42;16.67;;;4.80;;
10509;SDS011;5303;53.266;10.410;2024-01-27T12:25:09;10.60;;;3.60;;
10509;SDS011;5303;53.266;10.410;2024-01-27T12:27:40;12.30;;;3.27;;
10509;SDS011;5303;53.266;10.410;2024-01-27T12:30:06;15.40;;;3.47;;
10509;SDS011;5303;53.266;10.410;2024-01-27T12:32:32;14.87;;;3.47;;
10509;SDS011;5303;53.266;10.410;2024-01-27T12:34:58;12.23;;;2.97;;
10509;SDS011;5303;53.266;10.410;2024-01-27T12:37:25;16.00;;;4.10;;
10509;SDS011;5303;53.266;10.410;2024-01-27T12:39:51;6.60;;;2.77;;
10509;SDS011;5303;53.266;10.410;2024-01-27T12:42:16;10.53;;;3.60;;
10509;SDS011;5303;53.266;10.410;2024-01-27T12:44:42;13.43;;;3.77;;
10509;SDS011;5303;53.266;10.410;2024-01-27T12:47:09;12.03;;;3.33;;
10509;SDS011;5303;53.266;10.410;2024-01-27T12:49:35;11.23;;;3.20;;
10509;SDS011;5303;53.266;10.410;2024-01-27T12:52:01;11.00;;;3.50;;
10509;SDS011;5303;53.266;10.410;2024-01-27T12:54:26;9.63;;;3.20;;
10509;SDS011;5303;53.266;10.410;2024-01-27T12:56:51;9.77;;;3.10;;
10509;SDS011;5303;53.266;10.410;2024-01-27T12:59:17;16.13;;;3.67;;
10509;SDS011;5303;53.266;10.410;2024-01-27T13:01:42;16.83;;;4.07;;
10509;SDS011;5303;53.266;10.410;2024-01-27T13:04:07;17.00;;;3.53;;
10509;SDS011;5303;53.266;10.410;2024-01-27T13:06:33;8.87;;;3.47;;
10509;SDS011;5303;53.266;10.410;2024-01-27T13:08:58;15.03;;;4.47;;
10509;SDS011;5303;53.266;10.410;2024-01-27T13:11:24;15.07;;;4.13;;
10509;SDS011;5303;53.266;10.410;2024-01-27T13:13:49;11.43;;;3.67;;
10509;SDS011;5303;53.266;10.410;2024-01-27T13:16:14;14.77;;;4.07;;
10509;SDS011;5303;53.266;10.410;2024-01-27T13:18:40;12.93;;;3.93;;
10509;SDS011;5303;53.266;10.410;2024-01-27T13:21:05;12.93;;;3.50;;
10509;SDS011;5303;53.266;10.410;2024-01-27T13:23:31;17.43;;;4.50;;
10509;SDS011;5303;53.266;10.410;2024-01-27T13:25:57;12.03;;;3.73;;
10509;SDS011;5303;53.266;10.410;2024-01-27T13:28:23;15.13;;;4.43;;
10509;SDS011;5303;53.266;10.410;2024-01-27T13:30:48;17.23;;;4.93;;
10509;SDS011;5303;53.266;10.410;2024-01-27T13:33:14;11.93;;;4.07;;
10509;SDS011;5303;53.266;10.410;2024-01-27T13:35:40;14.50;;;3.60;;
10509;SDS011;5303;53.266;10.410;2024-01-27T13:38:09;11.00;;;3.53;;
10509;SDS011;5303;53.266;10.410;2024-01-27T13:40:34;17.50;;;3.93;;
10509;SDS011;5303;53.266;10.410;2024-01-27T13:42:59;14.20;;;3.83;;
10509;SDS011;5303;53.266;10.410;2024-01-27T13:45:25;14.13;;;4.33;;
10509;SDS011;5303;53.266;10.410;2024-01-27T13:47:50;11.33;;;3.77;;
10509;SDS011;5303;53.266;10.410;2024-01-27T13:50:15;14.80;;;3.77;;
10509;SDS011;5303;53.266;10.410;2024-01-27T13:52:41;10.03;;;3.70;;
10509;SDS011;5303;53.266;10.410;2024-01-27T13:55:08;12.30;;;4.03;;
10509;SDS011;5303;53.266;10.410;2024-01-27T13:57:34;19.17;;;4.30;;
10509;SDS011;5303;53.266;10.410;2024-01-27T14:00:00;11.53;;;4.27;;
10509;SDS011;5303;53.266;10.410;2024-01-27T14:02:26;10.20;;;3.63;;
10509;SDS011;5303;53.266;10.410;2024-01-27T14:04:51;11.53;;;3.70;;
10509;SDS011;5303;53.266;10.410;2024-01-27T14:07:17;15.47;;;4.00;;
10509;SDS011;5303;53.266;10.410;2024-01-27T14:09:43;14.27;;;3.50;;
10509;SDS011;5303;53.266;10.410;2024-01-27T14:12:09;12.57;;;3.53;;
10509;SDS011;5303;53.266;10.410;2024-01-27T14:14:35;12.20;;;3.47;;
10509;SDS011;5303;53.266;10.410;2024-01-27T14:17:03;9.97;;;2.90;;
10509;SDS011;5303;53.266;10.410;2024-01-27T14:19:29;13.77;;;3.67;;
10509;SDS011;5303;53.266;10.410;2024-01-27T14:21:54;12.37;;;3.57;;
10509;SDS011;5303;53.266;10.410;2024-01-27T14:24:20;15.27;;;3.63;;
10509;SDS011;5303;53.266;10.410;2024-01-27T14:26:46;10.07;;;3.20;;
10509;SDS011;5303;53.266;10.410;2024-01-27T14:29:11;11.07;;;3.53;;